createdAt,value
2024-01-03T00:00:01.726Z,91590.00
2024-01-03T00:01:01.817Z,91593.00
2024-01-03T00:02:01.826Z,91580.00
2024-01-03T00:03:01.876Z,91583.00
2024-01-03T00:04:02.047Z,91586.00
2024-01-03T00:05:01.967Z,91592.00
2024-01-03T00:06:02.222Z,91595.00
2024-01-03T00:07:02.070Z,91597.00
2024-01-03T00:08:02.092Z,91597.00
2024-01-03T00:09:02.221Z,91604.00
2024-01-03T00:10:02.199Z,91605.00
2024-01-03T00:11:02.253Z,91602.00
2024-01-03T00:12:02.347Z,91598.00
2024-01-03T00:13:02.362Z,91591.00
2024-01-03T00:14:02.414Z,91598.00
2024-01-03T00:15:02.474Z,91595.00
2024-01-03T00:16:02.523Z,91601.00
2024-01-03T00:17:02.542Z,91598.00
2024-01-03T00:18:02.753Z,91598.00
2024-01-03T00:19:02.807Z,91594.00
2024-01-03T00:20:02.696Z,91596.00
2024-01-03T00:21:02.870Z,91599.00
2024-01-03T00:22:02.784Z,91599.00
2024-01-03T00:23:02.828Z,91593.00
2024-01-03T00:24:02.882Z,91592.00
2024-01-03T00:25:02.945Z,91596.00
2024-01-03T00:26:02.973Z,91586.00
2024-01-03T00:27:03.062Z,91592.00
2024-01-03T00:28:03.073Z,91592.00
2024-01-03T00:29:03.124Z,91598.00
2024-01-03T00:30:03.269Z,91597.00
2024-01-03T00:31:03.227Z,91593.00
2024-01-03T00:32:03.245Z,91591.00
2024-01-03T00:33:05.366Z,91594.00
2024-01-03T00:34:03.458Z,91595.00
2024-01-03T00:35:03.490Z,91597.00
2024-01-03T00:36:03.462Z,91590.00
2024-01-03T00:37:03.492Z,91585.00
2024-01-03T00:38:03.530Z,91587.00
2024-01-03T00:39:03.626Z,91587.00
2024-01-03T00:40:03.625Z,91590.00
2024-01-03T00:41:03.674Z,91592.00
2024-01-03T00:42:03.767Z,91600.00
2024-01-03T00:43:03.760Z,91599.00
2024-01-03T00:44:03.834Z,91602.00
2024-01-03T00:45:04.002Z,91605.00
2024-01-03T00:46:03.901Z,91603.00
2024-01-03T00:47:03.956Z,91595.00
2024-01-03T00:48:04.124Z,91601.00
2024-01-03T00:49:04.207Z,91610.00
2024-01-03T00:50:04.214Z,91621.00
2024-01-03T00:51:04.138Z,91625.00
2024-01-03T00:52:04.232Z,91622.00
2024-01-03T00:53:04.226Z,91618.00
2024-01-03T00:54:04.292Z,91617.00
2024-01-03T00:55:04.313Z,91608.00
2024-01-03T00:56:04.362Z,91606.00
2024-01-03T00:57:04.462Z,91608.00
2024-01-03T00:58:04.450Z,91613.00
2024-01-03T00:59:04.498Z,91616.00
2024-01-03T01:00:04.611Z,91612.00
2024-01-03T01:01:04.636Z,91616.00
2024-01-03T01:02:04.628Z,91618.00
2024-01-03T01:03:04.692Z,91613.00
2024-01-03T01:04:04.803Z,91610.00
2024-01-03T01:05:04.823Z,91607.00
2024-01-03T01:06:04.891Z,91609.00
2024-01-03T01:07:04.864Z,91620.00
2024-01-03T01:08:05.002Z,91614.00
2024-01-03T01:09:05.082Z,91619.00
2024-01-03T01:10:05.000Z,91628.00
2024-01-03T01:11:05.055Z,91634.00
2024-01-03T01:12:05.116Z,91633.00
2024-01-03T01:13:05.155Z,91634.00
2024-01-03T01:14:05.203Z,91629.00
2024-01-03T01:15:05.308Z,91628.00
2024-01-03T01:16:05.295Z,91629.00
2024-01-03T01:17:05.348Z,91631.00
2024-01-03T01:18:05.575Z,91631.00
2024-01-03T01:19:05.499Z,91626.00
2024-01-03T01:20:05.485Z,91626.00
2024-01-03T01:21:05.609Z,91628.00
2024-01-03T01:22:05.570Z,91631.00
2024-01-03T01:23:05.637Z,91632.00
2024-01-03T01:24:05.732Z,91634.00
2024-01-03T01:25:05.696Z,91631.00
2024-01-03T01:26:05.742Z,91630.00
2024-01-03T01:27:05.857Z,91627.00
2024-01-03T01:28:06.103Z,91622.00
2024-01-03T01:29:05.871Z,91618.00
2024-01-03T01:30:05.992Z,91612.00
2024-01-03T01:31:05.958Z,91613.00
2024-01-03T01:32:06.009Z,91613.00
2024-01-03T01:33:06.246Z,91612.00
2024-01-03T01:34:06.263Z,91614.00
2024-01-03T01:35:06.138Z,91610.00
2024-01-03T01:36:06.181Z,91615.00
2024-01-03T01:37:06.217Z,91622.00
2024-01-03T01:38:06.506Z,91620.00
2024-01-03T01:39:06.305Z,91621.00
2024-01-03T01:40:06.326Z,91627.00
2024-01-03T01:41:06.367Z,91628.00
2024-01-03T01:42:06.414Z,91629.00
2024-01-03T01:43:06.464Z,91628.00
2024-01-03T01:44:06.519Z,91632.00
2024-01-03T01:45:06.573Z,91635.00
2024-01-03T01:46:06.610Z,91632.00
2024-01-03T01:47:06.669Z,91631.00
2024-01-03T01:48:06.906Z,91632.00
2024-01-03T01:49:06.758Z,91630.00
2024-01-03T01:50:06.799Z,91632.00
2024-01-03T01:51:06.826Z,91632.00
2024-01-03T01:52:06.876Z,91629.00
2024-01-03T01:53:06.910Z,91629.00
2024-01-03T01:54:06.986Z,91626.00
2024-01-03T01:55:06.980Z,91625.00
2024-01-03T01:56:07.020Z,91626.00
2024-01-03T01:57:07.061Z,91630.00
2024-01-03T01:58:07.391Z,91633.00
2024-01-03T01:59:07.161Z,91634.00
2024-01-03T02:00:07.205Z,91636.00
2024-01-03T02:01:07.273Z,91639.00
2024-01-03T02:02:07.298Z,91636.00
2024-01-03T02:03:07.341Z,91642.00
2024-01-03T02:04:07.446Z,91642.00
2024-01-03T02:05:07.478Z,91649.00
2024-01-03T02:06:07.535Z,91655.00
2024-01-03T02:07:07.545Z,91651.00
2024-01-03T02:08:07.760Z,91655.00
2024-01-03T02:09:07.644Z,91656.00
2024-01-03T02:10:07.724Z,91658.00
2024-01-03T02:11:07.719Z,91667.00
2024-01-03T02:12:07.765Z,91665.00
2024-01-03T02:13:07.854Z,91661.00
2024-01-03T02:14:07.861Z,91670.00
2024-01-03T02:15:07.894Z,91667.00
2024-01-03T02:16:07.933Z,91674.00
2024-01-03T02:17:07.981Z,91683.00
2024-01-03T02:18:08.469Z,91690.00
2024-01-03T02:19:08.152Z,91688.00
2024-01-03T02:20:08.133Z,91685.00
2024-01-03T02:21:08.166Z,91673.00
2024-01-03T02:22:08.214Z,91663.00
2024-01-03T02:23:08.254Z,91661.00
2024-01-03T02:24:08.293Z,91656.00
2024-01-03T02:25:08.341Z,91659.00
2024-01-03T02:26:17.614Z,91655.00
2024-01-03T02:27:09.422Z,91657.00
2024-01-03T02:28:08.575Z,91666.00
2024-01-03T02:29:08.400Z,91666.00
2024-01-03T02:30:08.415Z,91659.00
2024-01-03T02:31:08.410Z,91667.00
2024-01-03T02:32:08.401Z,91664.00
2024-01-03T02:33:08.507Z,91675.00
2024-01-03T02:34:08.458Z,91669.00
2024-01-03T02:35:08.412Z,91669.00
2024-01-03T02:36:08.424Z,91675.00
2024-01-03T02:37:08.424Z,91674.00
2024-01-03T02:38:08.674Z,91665.00
2024-01-03T02:39:08.440Z,91660.00
2024-01-03T02:40:08.459Z,91666.00
2024-01-03T02:41:08.571Z,91665.00
2024-01-03T02:42:08.658Z,91671.00
2024-01-03T02:43:08.590Z,91659.00
2024-01-03T02:44:08.633Z,91660.00
2024-01-03T02:45:08.688Z,91663.00
2024-01-03T02:46:08.711Z,91661.00
2024-01-03T02:47:08.747Z,91643.00
2024-01-03T02:48:09.227Z,91658.00
2024-01-03T02:49:09.100Z,91646.00
2024-01-03T02:50:08.880Z,91637.00
2024-01-03T02:51:08.926Z,91643.00
2024-01-03T02:52:08.978Z,91642.00
2024-01-03T02:53:09.028Z,91640.00
2024-01-03T02:54:09.068Z,91657.00
2024-01-03T02:55:09.101Z,91658.00
2024-01-03T02:56:09.140Z,91653.00
2024-01-03T02:57:09.180Z,91651.00
2024-01-03T02:58:09.436Z,91651.00
2024-01-03T02:59:09.278Z,91652.00
2024-01-03T03:00:09.306Z,91647.00
2024-01-03T03:01:09.388Z,91637.00
2024-01-03T03:02:09.385Z,91642.00
2024-01-03T03:03:09.462Z,91644.00
2024-01-03T03:04:09.512Z,91649.00
2024-01-03T03:05:09.542Z,91635.00
2024-01-03T03:06:09.791Z,91640.00
2024-01-03T03:07:09.617Z,91649.00
2024-01-03T03:08:09.961Z,91640.00
2024-01-03T03:09:16.594Z,91634.00
2024-01-03T03:10:10.724Z,91631.00
2024-01-03T03:11:09.721Z,91634.00
2024-01-03T03:12:09.712Z,91628.00
2024-01-03T03:13:09.724Z,91626.00
2024-01-03T03:14:09.725Z,91631.00
2024-01-03T03:15:09.734Z,91628.00
2024-01-03T03:16:09.744Z,91631.00
2024-01-03T03:17:09.760Z,91634.00
2024-01-03T03:18:10.192Z,91634.00
2024-01-03T03:19:09.899Z,91631.00
2024-01-03T03:20:09.735Z,91637.00
2024-01-03T03:21:09.766Z,91635.00
2024-01-03T03:22:09.743Z,91639.00
2024-01-03T03:23:09.783Z,91635.00
2024-01-03T03:24:09.822Z,91638.00
2024-01-03T03:25:09.895Z,91642.00
2024-01-03T03:26:09.924Z,91645.00
2024-01-03T03:27:09.965Z,91645.00
2024-01-03T03:28:10.649Z,91634.00
2024-01-03T03:29:10.051Z,91644.00
2024-01-03T03:30:10.152Z,91646.00
2024-01-03T03:31:10.121Z,91630.00
2024-01-03T03:32:10.158Z,91618.00
2024-01-03T03:33:10.369Z,91617.00
2024-01-03T03:34:10.421Z,91625.00
2024-01-03T03:35:10.302Z,91617.00
2024-01-03T03:36:10.318Z,91628.00
2024-01-03T03:37:10.350Z,91630.00
2024-01-03T03:38:10.699Z,91622.00
2024-01-03T03:39:10.449Z,91631.00
2024-01-03T03:40:10.477Z,91637.00
2024-01-03T03:41:10.521Z,91631.00
2024-01-03T03:42:10.557Z,91638.00
2024-01-03T03:43:10.601Z,91634.00
2024-01-03T03:44:10.641Z,91632.00
2024-01-03T03:45:10.677Z,91630.00
2024-01-03T03:46:10.779Z,91616.00
2024-01-03T03:47:10.777Z,91614.00
2024-01-03T03:48:11.329Z,91606.00
2024-01-03T03:49:10.944Z,91603.00
2024-01-03T03:50:10.940Z,91598.00
2024-01-03T03:51:10.937Z,91603.00
2024-01-03T03:52:10.976Z,91603.00
2024-01-03T03:53:11.014Z,91598.00
2024-01-03T03:54:11.057Z,91594.00
2024-01-03T03:55:11.098Z,91584.00
2024-01-03T03:56:11.144Z,91593.00
2024-01-03T03:57:11.187Z,91578.00
2024-01-03T03:58:11.397Z,91578.00
2024-01-03T03:59:11.274Z,91571.00
2024-01-03T04:00:11.315Z,91575.00
2024-01-03T04:01:11.368Z,91571.00
2024-01-03T04:02:11.387Z,91562.00
2024-01-03T04:03:11.417Z,91563.00
2024-01-03T04:04:11.518Z,91566.00
2024-01-03T04:05:11.514Z,91572.00
2024-01-03T04:06:11.554Z,91564.00
2024-01-03T04:07:11.598Z,91566.00
2024-01-03T04:08:11.824Z,91573.00
2024-01-03T04:09:11.645Z,91571.00
2024-01-03T04:10:11.693Z,91587.00
2024-01-03T04:11:11.730Z,91591.00
2024-01-03T04:12:11.779Z,91586.00
2024-01-03T04:13:11.935Z,91575.00
2024-01-03T04:14:11.849Z,91566.00
2024-01-03T04:15:11.903Z,91565.00
2024-01-03T04:16:11.923Z,91568.00
2024-01-03T04:17:11.973Z,91563.00
2024-01-03T04:18:12.303Z,91569.00
2024-01-03T04:19:12.200Z,91578.00
2024-01-03T04:20:12.070Z,91571.00
2024-01-03T04:21:12.131Z,91571.00
2024-01-03T04:22:12.155Z,91572.00
2024-01-03T04:23:12.202Z,91566.00
2024-01-03T04:24:12.249Z,91571.00
2024-01-03T04:25:12.280Z,91577.00
2024-01-03T04:26:12.327Z,91578.00
2024-01-03T04:27:12.368Z,91571.00
2024-01-03T04:28:12.412Z,91572.00
2024-01-03T04:29:12.461Z,91580.00
2024-01-03T04:30:12.597Z,91581.00
2024-01-03T04:31:12.523Z,91595.00
2024-01-03T04:32:12.574Z,91592.00
2024-01-03T04:33:12.727Z,91598.00
2024-01-03T04:34:12.707Z,91597.00
2024-01-03T04:35:12.720Z,91599.00
2024-01-03T04:36:12.727Z,91601.00
2024-01-03T04:37:12.768Z,91599.00
2024-01-03T04:38:12.806Z,91598.00
2024-01-03T04:39:20.051Z,91602.00
2024-01-03T04:40:20.080Z,91602.00
2024-01-03T04:41:20.150Z,91607.00
2024-01-03T04:42:20.099Z,91614.00
2024-01-03T04:43:20.105Z,91620.00
2024-01-03T04:44:20.130Z,91622.00
2024-01-03T04:45:20.137Z,91626.00
2024-01-03T04:46:20.143Z,91619.00
2024-01-03T04:47:20.218Z,91615.00
2024-01-03T04:48:20.275Z,91619.00
2024-01-03T04:49:20.274Z,91619.00
2024-01-03T04:50:20.243Z,91624.00
2024-01-03T04:51:20.737Z,91619.00
2024-01-03T04:52:20.207Z,91622.00
2024-01-03T04:53:20.230Z,91624.00
2024-01-03T04:54:20.215Z,91629.00
2024-01-03T04:55:20.232Z,91630.00
2024-01-03T04:56:20.348Z,91625.00
2024-01-03T04:57:20.817Z,91620.00
2024-01-03T04:58:20.249Z,91615.00
2024-01-03T04:59:20.321Z,91614.00
2024-01-03T05:00:20.276Z,91616.00
2024-01-03T05:01:20.294Z,91622.00
2024-01-03T05:02:20.307Z,91623.00
2024-01-03T05:03:20.378Z,91624.00
2024-01-03T05:04:20.316Z,91616.00
2024-01-03T05:05:20.458Z,91602.00
2024-01-03T05:06:20.437Z,91601.00
2024-01-03T05:07:20.361Z,91605.00
2024-01-03T05:08:20.418Z,91609.00
2024-01-03T05:09:20.423Z,91608.00
2024-01-03T05:10:20.417Z,91602.00
2024-01-03T05:11:20.470Z,91599.00
2024-01-03T05:12:20.429Z,91601.00
2024-01-03T05:13:20.444Z,91596.00
2024-01-03T05:14:20.493Z,91603.00
2024-01-03T05:15:20.496Z,91600.00
2024-01-03T05:16:20.479Z,91612.00
2024-01-03T05:17:20.551Z,91609.00
2024-01-03T05:18:20.608Z,91609.00
2024-01-03T05:19:20.624Z,91596.00
2024-01-03T05:20:20.594Z,91596.00
2024-01-03T05:21:20.547Z,91601.00
2024-01-03T05:22:20.560Z,91607.00
2024-01-03T05:23:20.631Z,91605.00
2024-01-03T05:24:20.588Z,91603.00
2024-01-03T05:25:20.604Z,91608.00
2024-01-03T05:26:20.664Z,91611.00
2024-01-03T05:27:20.630Z,91611.00
2024-01-03T05:28:20.665Z,91614.00
2024-01-03T05:29:20.672Z,91610.00
2024-01-03T05:30:20.824Z,91606.00
2024-01-03T05:31:20.686Z,91604.00
2024-01-03T05:32:20.782Z,91612.00
2024-01-03T05:33:20.877Z,91613.00
2024-01-03T05:34:20.718Z,91612.00
2024-01-03T05:35:20.756Z,91584.00
2024-01-03T05:36:20.757Z,91580.00
2024-01-03T05:37:20.820Z,91586.00
2024-01-03T05:38:20.797Z,91587.00
2024-01-03T05:39:20.775Z,91592.00
2024-01-03T05:40:20.791Z,91593.00
2024-01-03T05:41:20.804Z,91581.00
2024-01-03T05:42:20.827Z,91579.00
2024-01-03T05:43:20.858Z,91573.00
2024-01-03T05:44:20.934Z,91572.00
2024-01-03T05:45:20.950Z,91572.00
2024-01-03T05:46:21.058Z,91577.00
2024-01-03T05:47:21.059Z,91565.00
2024-01-03T05:48:21.181Z,91573.00
2024-01-03T05:49:21.187Z,91577.00
2024-01-03T05:50:21.177Z,91574.00
2024-01-03T05:51:21.191Z,91576.00
2024-01-03T05:52:21.239Z,91578.00
2024-01-03T05:53:21.289Z,91580.00
2024-01-03T05:54:21.316Z,91588.00
2024-01-03T05:55:21.361Z,91584.00
2024-01-03T05:56:21.411Z,91587.00
2024-01-03T05:57:21.415Z,91593.00
2024-01-03T05:58:21.500Z,91597.00
2024-01-03T05:59:21.554Z,91603.00
2024-01-03T06:00:21.586Z,91615.00
2024-01-03T06:01:21.735Z,91618.00
2024-01-03T06:02:21.683Z,91624.00
2024-01-03T06:03:21.719Z,91641.00
2024-01-03T06:04:21.692Z,91642.00
2024-01-03T06:05:21.892Z,91649.00
2024-01-03T06:06:21.880Z,91654.00
2024-01-03T06:07:21.828Z,91652.00
2024-01-03T06:08:21.915Z,91657.00
2024-01-03T06:09:21.923Z,91652.00
2024-01-03T06:10:21.968Z,91647.00
2024-01-03T06:11:22.003Z,91639.00
2024-01-03T06:12:22.014Z,91643.00
2024-01-03T06:13:22.049Z,91644.00
2024-01-03T06:14:22.126Z,91642.00
2024-01-03T06:15:22.159Z,91642.00
2024-01-03T06:16:22.165Z,91645.00
2024-01-03T06:17:22.211Z,91646.00
2024-01-03T06:18:22.369Z,91646.00
2024-01-03T06:19:22.319Z,91642.00
2024-01-03T06:20:23.974Z,91641.00
2024-01-03T06:21:22.344Z,91637.00
2024-01-03T06:22:22.387Z,91638.00
2024-01-03T06:23:22.477Z,91641.00
2024-01-03T06:24:22.475Z,91638.00
2024-01-03T06:25:22.519Z,91635.00
2024-01-03T06:26:22.607Z,91630.00
2024-01-03T06:27:22.640Z,91633.00
2024-01-03T06:28:22.630Z,91629.00
2024-01-03T06:29:22.826Z,91615.00
2024-01-03T06:30:22.956Z,91618.00
2024-01-03T06:31:22.834Z,91619.00
2024-01-03T06:32:22.918Z,91616.00
2024-01-03T06:33:23.006Z,91627.00
2024-01-03T06:34:22.909Z,91623.00
2024-01-03T06:35:22.906Z,91625.00
2024-01-03T06:36:22.941Z,91622.00
2024-01-03T06:37:22.980Z,91620.00
2024-01-03T06:38:23.049Z,91615.00
2024-01-03T06:39:23.053Z,91615.00
2024-01-03T06:40:23.097Z,91618.00
2024-01-03T06:41:23.171Z,91616.00
2024-01-03T06:42:23.164Z,91617.00
2024-01-03T06:43:23.201Z,91624.00
2024-01-03T06:44:23.248Z,91625.00
2024-01-03T06:45:23.313Z,91629.00
2024-01-03T06:46:23.344Z,91627.00
2024-01-03T06:47:23.465Z,91634.00
2024-01-03T06:48:23.516Z,91631.00
2024-01-03T06:49:23.589Z,91638.00
2024-01-03T06:50:23.525Z,91637.00
2024-01-03T06:51:23.505Z,91635.00
2024-01-03T06:52:23.536Z,91621.00
2024-01-03T06:53:23.620Z,91636.00
2024-01-03T06:54:23.616Z,91632.00
2024-01-03T06:55:23.654Z,91634.00
2024-01-03T06:56:23.714Z,91640.00
2024-01-03T06:57:23.790Z,91634.00
2024-01-03T06:58:23.800Z,91636.00
2024-01-03T06:59:23.858Z,91634.00
2024-01-03T07:00:23.843Z,91644.00
2024-01-03T07:01:23.939Z,91646.00
2024-01-03T07:02:23.995Z,91637.00
2024-01-03T07:03:24.072Z,91649.00
2024-01-03T07:04:26.376Z,91662.00
2024-01-03T07:05:24.076Z,91666.00
2024-01-03T07:06:24.092Z,91668.00
2024-01-03T07:07:24.041Z,91667.00
2024-01-03T07:08:24.063Z,91666.00
2024-01-03T07:09:24.058Z,91663.00
2024-01-03T07:10:24.068Z,91660.00
2024-01-03T07:11:24.133Z,91655.00
2024-01-03T07:12:24.095Z,91664.00
2024-01-03T07:13:24.112Z,91672.00
2024-01-03T07:14:24.149Z,91678.00
2024-01-03T07:15:24.153Z,91674.00
2024-01-03T07:16:24.160Z,91673.00
2024-01-03T07:17:24.302Z,91668.00
2024-01-03T07:18:24.381Z,91662.00
2024-01-03T07:19:24.241Z,91655.00
2024-01-03T07:20:24.260Z,91658.00
2024-01-03T07:21:24.198Z,91664.00
2024-01-03T07:22:24.219Z,91661.00
2024-01-03T07:23:24.333Z,91659.00
2024-01-03T07:24:24.234Z,91657.00
2024-01-03T07:25:24.251Z,91666.00
2024-01-03T07:26:24.271Z,91657.00
2024-01-03T07:27:24.272Z,91659.00
2024-01-03T07:28:24.279Z,91647.00
2024-01-03T07:29:24.292Z,91645.00
2024-01-03T07:30:24.381Z,91660.00
2024-01-03T07:31:24.318Z,91663.00
2024-01-03T07:32:24.392Z,91668.00
2024-01-03T07:33:24.435Z,91666.00
2024-01-03T07:34:24.459Z,91666.00
2024-01-03T07:35:24.383Z,91667.00
2024-01-03T07:36:24.373Z,91671.00
2024-01-03T07:37:24.388Z,91675.00
2024-01-03T07:38:24.454Z,91669.00
2024-01-03T07:39:24.412Z,91677.00
2024-01-03T07:40:24.425Z,91678.00
2024-01-03T07:41:24.475Z,91678.00
2024-01-03T07:42:24.472Z,91685.00
2024-01-03T07:43:24.478Z,91683.00
2024-01-03T07:44:24.511Z,91682.00
2024-01-03T07:45:24.496Z,91683.00
2024-01-03T07:46:24.693Z,91681.00
2024-01-03T07:47:24.598Z,91678.00
2024-01-03T07:48:24.724Z,91676.00
2024-01-03T07:49:24.642Z,91676.00
2024-01-03T07:50:24.588Z,91677.00
2024-01-03T07:51:24.571Z,91678.00
2024-01-03T07:52:27.004Z,91680.00
2024-01-03T07:53:24.695Z,91677.00
2024-01-03T07:54:24.611Z,91686.00
2024-01-03T07:55:24.622Z,91684.00
2024-01-03T07:56:24.651Z,91683.00
2024-01-03T07:57:24.638Z,91679.00
2024-01-03T07:58:24.655Z,91681.00
2024-01-03T07:59:24.693Z,91669.00
2024-01-03T08:00:24.668Z,91677.00
2024-01-03T08:01:24.740Z,91680.00
2024-01-03T08:02:24.724Z,91679.00
2024-01-03T08:03:24.750Z,91678.00
2024-01-03T08:04:24.711Z,91680.00
2024-01-03T08:05:24.792Z,91674.00
2024-01-03T08:06:24.843Z,91670.00
2024-01-03T08:07:24.761Z,91673.00
2024-01-03T08:08:24.806Z,91679.00
2024-01-03T08:09:24.810Z,91674.00
2024-01-03T08:10:24.805Z,91674.00
2024-01-03T08:11:24.865Z,91670.00
2024-01-03T08:12:24.857Z,91674.00
2024-01-03T08:13:24.856Z,91670.00
2024-01-03T08:14:24.973Z,91670.00
2024-01-03T08:15:24.892Z,91681.00
2024-01-03T08:16:24.912Z,91671.00
2024-01-03T08:17:25.008Z,91675.00
2024-01-03T08:18:25.032Z,91671.00
2024-01-03T08:19:25.070Z,91678.00
2024-01-03T08:20:25.110Z,91677.00
2024-01-03T08:21:25.060Z,91696.00
2024-01-03T08:22:24.981Z,91687.00
2024-01-03T08:23:25.026Z,91689.00
2024-01-03T08:24:25.010Z,91690.00
2024-01-03T08:25:25.047Z,91694.00
2024-01-03T08:26:25.073Z,91694.00
2024-01-03T08:27:25.057Z,91693.00
2024-01-03T08:28:25.059Z,91690.00
2024-01-03T08:29:25.091Z,91707.00
2024-01-03T08:30:25.164Z,91702.00
2024-01-03T08:31:25.093Z,91698.00
2024-01-03T08:32:25.191Z,91704.00
2024-01-03T08:33:25.204Z,91713.00
2024-01-03T08:34:25.193Z,91709.00
2024-01-03T08:35:25.223Z,91718.00
2024-01-03T08:36:25.165Z,91709.00
2024-01-03T08:37:25.192Z,91708.00
2024-01-03T08:38:25.239Z,91711.00
2024-01-03T08:39:25.211Z,91695.00
2024-01-03T08:40:25.230Z,91691.00
2024-01-03T08:41:25.289Z,91704.00
2024-01-03T08:42:25.248Z,91709.00
2024-01-03T08:43:25.271Z,91693.00
2024-01-03T08:44:25.323Z,91702.00
2024-01-03T08:45:25.308Z,91703.00
2024-01-03T08:46:25.328Z,91706.00
2024-01-03T08:47:25.436Z,91702.00
2024-01-03T08:48:25.464Z,91703.00
2024-01-03T08:49:25.637Z,91702.00
2024-01-03T08:50:25.495Z,91704.00
2024-01-03T08:51:25.502Z,91705.00
2024-01-03T08:52:25.424Z,91707.00
2024-01-03T08:53:25.455Z,91709.00
2024-01-03T08:54:25.443Z,91710.00
2024-01-03T08:55:25.475Z,91709.00
2024-01-03T08:56:25.497Z,91708.00
2024-01-03T08:57:25.499Z,91713.00
2024-01-03T08:58:25.511Z,91714.00
2024-01-03T08:59:25.619Z,91712.00
2024-01-03T09:00:25.532Z,91709.00
2024-01-03T09:01:25.553Z,91709.00
2024-01-03T09:02:25.663Z,91712.00
2024-01-03T09:03:25.607Z,91703.00
2024-01-03T09:04:25.588Z,91694.00
2024-01-03T09:05:25.676Z,91693.00
2024-01-03T09:06:25.740Z,91695.00
2024-01-03T09:07:25.697Z,91698.00
2024-01-03T09:08:25.745Z,91701.00
2024-01-03T09:09:25.792Z,91700.00
2024-01-03T09:10:25.803Z,91696.00
2024-01-03T09:11:25.946Z,91701.00
2024-01-03T09:12:25.939Z,91692.00
2024-01-03T09:13:25.916Z,91692.00
2024-01-03T09:14:25.991Z,91704.00
2024-01-03T09:15:26.002Z,91711.00
2024-01-03T09:16:26.038Z,91713.00
2024-01-03T09:17:26.088Z,91715.00
2024-01-03T09:18:26.286Z,91707.00
2024-01-03T09:19:26.244Z,91708.00
2024-01-03T09:20:26.219Z,91713.00
2024-01-03T09:21:26.248Z,91708.00
2024-01-03T09:22:26.279Z,91715.00
2024-01-03T09:23:26.352Z,91709.00
2024-01-03T09:24:26.364Z,91706.00
2024-01-03T09:25:26.406Z,91707.00
2024-01-03T09:26:26.511Z,91711.00
2024-01-03T09:27:26.477Z,91706.00
2024-01-03T09:28:26.512Z,91704.00
2024-01-03T09:29:26.609Z,91710.00
2024-01-03T09:30:26.606Z,91714.00
2024-01-03T09:31:26.638Z,91718.00
2024-01-03T09:32:26.738Z,91731.00
2024-01-03T09:33:26.742Z,91723.00
2024-01-03T09:34:26.794Z,91732.00
2024-01-03T09:35:26.762Z,91730.00
2024-01-03T09:36:28.737Z,91734.00
2024-01-03T09:37:26.823Z,91734.00
2024-01-03T09:38:26.887Z,91737.00
2024-01-03T09:39:26.880Z,91737.00
2024-01-03T09:40:26.929Z,91734.00
2024-01-03T09:41:26.992Z,91735.00
2024-01-03T09:42:27.212Z,91734.00
2024-01-03T09:43:27.214Z,91739.00
2024-01-03T09:44:27.063Z,91741.00
2024-01-03T09:45:27.257Z,91740.00
2024-01-03T09:46:27.121Z,91738.00
2024-01-03T09:47:27.201Z,91744.00
2024-01-03T09:48:27.321Z,91730.00
2024-01-03T09:49:27.310Z,91736.00
2024-01-03T09:50:27.310Z,91736.00
2024-01-03T09:51:27.279Z,91740.00
2024-01-03T09:52:27.316Z,91747.00
2024-01-03T09:53:27.368Z,91739.00
2024-01-03T09:54:27.367Z,91735.00
2024-01-03T09:55:27.454Z,91734.00
2024-01-03T09:56:27.431Z,91738.00
2024-01-03T09:57:27.425Z,91743.00
2024-01-03T09:58:27.452Z,91729.00
2024-01-03T09:59:27.554Z,91730.00
2024-01-03T10:00:27.520Z,91720.00
2024-01-03T10:01:27.582Z,91721.00
2024-01-03T10:02:27.644Z,91717.00
2024-01-03T10:03:27.613Z,91726.00
2024-01-03T10:04:27.610Z,91721.00
2024-01-03T10:05:27.719Z,91710.00
2024-01-03T10:06:27.702Z,91713.00
2024-01-03T10:07:27.689Z,91712.00
2024-01-03T10:08:27.744Z,91709.00
2024-01-03T10:09:27.747Z,91711.00
2024-01-03T10:10:27.766Z,91702.00
2024-01-03T10:11:27.924Z,91697.00
2024-01-03T10:12:27.813Z,91703.00
2024-01-03T10:13:27.851Z,91705.00
2024-01-03T10:14:27.921Z,91708.00
2024-01-03T10:15:27.923Z,91708.00
2024-01-03T10:16:27.933Z,91707.00
2024-01-03T10:17:28.001Z,91706.00
2024-01-03T10:18:29.078Z,91705.00
2024-01-03T10:19:28.201Z,91703.00
2024-01-03T10:20:28.077Z,91707.00
2024-01-03T10:21:28.063Z,91703.00
2024-01-03T10:22:28.081Z,91700.00
2024-01-03T10:23:28.137Z,91697.00
2024-01-03T10:24:28.133Z,91694.00
2024-01-03T10:25:28.202Z,91696.00
2024-01-03T10:26:28.280Z,91686.00
2024-01-03T10:27:28.212Z,91692.00
2024-01-03T10:28:28.260Z,91693.00
2024-01-03T10:29:28.274Z,91692.00
2024-01-03T10:30:28.445Z,91689.00
2024-01-03T10:31:28.311Z,91686.00
2024-01-03T10:32:28.436Z,91684.00
2024-01-03T10:33:28.561Z,91681.00
2024-01-03T10:34:28.527Z,91685.00
2024-01-03T10:35:28.465Z,91687.00
2024-01-03T10:36:28.475Z,91684.00
2024-01-03T10:37:28.479Z,91684.00
2024-01-03T10:38:28.516Z,91682.00
2024-01-03T10:39:28.521Z,91682.00
2024-01-03T10:40:28.549Z,91683.00
2024-01-03T10:41:28.669Z,91675.00
2024-01-03T10:42:28.592Z,91675.00
2024-01-03T10:43:28.621Z,91671.00
2024-01-03T10:44:28.693Z,91671.00
2024-01-03T10:45:28.718Z,91661.00
2024-01-03T10:46:28.714Z,91660.00
2024-01-03T10:47:28.809Z,91661.00
2024-01-03T10:48:28.929Z,91660.00
2024-01-03T10:49:28.895Z,91667.00
2024-01-03T10:50:28.858Z,91660.00
2024-01-03T10:51:28.843Z,91663.00
2024-01-03T10:52:28.874Z,91663.00
2024-01-03T10:53:28.912Z,91661.00
2024-01-03T10:54:28.920Z,91666.00
2024-01-03T10:55:28.943Z,91670.00
2024-01-03T10:56:29.007Z,91677.00
2024-01-03T10:57:31.152Z,91675.00
2024-01-03T10:58:29.014Z,91671.00
2024-01-03T10:59:29.070Z,91677.00
2024-01-03T11:00:29.064Z,91683.00
2024-01-03T11:01:29.093Z,91675.00
2024-01-03T11:02:29.155Z,91679.00
2024-01-03T11:03:29.674Z,91681.00
2024-01-03T11:04:29.162Z,91675.00
2024-01-03T11:05:29.257Z,91675.00
2024-01-03T11:06:29.263Z,91665.00
2024-01-03T11:07:29.222Z,91665.00
2024-01-03T11:08:29.264Z,91659.00
2024-01-03T11:09:29.264Z,91662.00
2024-01-03T11:10:29.291Z,91662.00
2024-01-03T11:11:29.350Z,91652.00
2024-01-03T11:12:29.417Z,91656.00
2024-01-03T11:13:29.368Z,91652.00
2024-01-03T11:14:29.413Z,91652.00
2024-01-03T11:15:38.095Z,91651.00
2024-01-03T11:16:30.416Z,91654.00
2024-01-03T11:17:29.507Z,91652.00
2024-01-03T11:18:29.535Z,91650.00
2024-01-03T11:19:29.534Z,91649.00
2024-01-03T11:20:29.469Z,91646.00
2024-01-03T11:21:29.452Z,91652.00
2024-01-03T11:22:29.455Z,91639.00
2024-01-03T11:23:29.490Z,91640.00
2024-01-03T11:24:29.491Z,91639.00
2024-01-03T11:25:29.507Z,91641.00
2024-01-03T11:26:29.550Z,91638.00
2024-01-03T11:27:29.512Z,91634.00
2024-01-03T11:28:29.524Z,91636.00
2024-01-03T11:29:29.559Z,91633.00
2024-01-03T11:30:29.599Z,91635.00
2024-01-03T11:31:29.560Z,91622.00
2024-01-03T11:32:30.423Z,91616.00
2024-01-03T11:33:29.664Z,91619.00
2024-01-03T11:34:29.678Z,91616.00
2024-01-03T11:35:29.625Z,91623.00
2024-01-03T11:36:29.594Z,91616.00
2024-01-03T11:37:29.616Z,91612.00
2024-01-03T11:38:30.867Z,91614.00
2024-01-03T11:39:29.612Z,91618.00
2024-01-03T11:40:29.637Z,91613.00
2024-01-03T11:41:29.654Z,91613.00
2024-01-03T11:42:29.676Z,91605.00
2024-01-03T11:43:29.629Z,91609.00
2024-01-03T11:44:31.532Z,91608.00